createdAt,value
2022-08-26T00:01:54.305Z,22.00
2022-08-26T00:04:25.196Z,22.10
2022-08-26T00:06:54.326Z,22.10
2022-08-26T00:09:22.838Z,22.10
2022-08-26T00:11:53.465Z,22.10
2022-08-26T00:14:21.583Z,22.10
2022-08-26T00:16:49.378Z,22.10
2022-08-26T00:19:19.222Z,22.10
2022-08-26T00:21:48.645Z,22.10
2022-08-26T00:24:19.333Z,22.10
2022-08-26T00:26:47.139Z,22.10
2022-08-26T00:29:14.944Z,22.10
2022-08-26T00:31:42.555Z,22.10
2022-08-26T00:34:13.920Z,22.10
2022-08-26T00:36:41.287Z,22.10
2022-08-26T00:39:09.450Z,22.10
2022-08-26T00:41:40.219Z,22.10
2022-08-26T00:44:11.234Z,22.10
2022-08-26T00:47:02.801Z,22.10
2022-08-26T00:49:42.521Z,22.10
2022-08-26T00:52:16.247Z,22.10
2022-08-26T00:54:51.547Z,22.10
2022-08-26T00:57:21.498Z,22.10
2022-08-26T00:59:54.738Z,22.10
2022-08-26T01:02:22.842Z,22.10
2022-08-26T01:04:55.743Z,22.10
2022-08-26T01:07:30.214Z,22.20
2022-08-26T01:10:00.951Z,22.10
2022-08-26T01:12:32.033Z,22.20
2022-08-26T01:15:00.714Z,22.20
2022-08-26T01:17:27.978Z,22.20
2022-08-26T01:20:11.672Z,22.20
2022-08-26T01:22:55.730Z,22.20
2022-08-26T01:25:25.324Z,22.20
2022-08-26T01:27:55.260Z,22.10
2022-08-26T01:30:27.998Z,22.10
2022-08-26T01:35:54.829Z,22.00
2022-08-26T01:38:23.725Z,22.00
2022-08-26T01:40:51.495Z,22.00
2022-08-26T01:43:25.171Z,22.00
2022-08-26T01:45:55.057Z,22.00
2022-08-26T01:48:26.129Z,22.00
2022-08-26T01:50:54.188Z,22.10
2022-08-26T01:53:24.039Z,22.10
2022-08-26T01:55:57.260Z,22.10
2022-08-26T01:58:36.489Z,22.10
2022-08-26T02:01:05.340Z,22.10
2022-08-26T02:03:33.922Z,22.10
2022-08-26T02:06:09.177Z,22.10
2022-08-26T02:08:41.849Z,22.10
2022-08-26T02:11:09.231Z,22.10
2022-08-26T02:13:43.815Z,22.00
2022-08-26T02:16:13.227Z,22.10
2022-08-26T02:18:43.694Z,22.00
2022-08-26T02:21:12.447Z,22.00
2022-08-26T02:23:40.521Z,22.00
2022-08-26T02:26:19.275Z,22.00
2022-08-26T02:28:58.430Z,22.00
2022-08-26T02:31:26.081Z,22.00
2022-08-26T02:33:53.509Z,22.00
2022-08-26T02:36:28.634Z,22.00
2022-08-26T02:38:56.336Z,22.00
2022-08-26T02:41:28.181Z,22.10
2022-08-26T02:43:55.989Z,22.10
2022-08-26T02:46:29.844Z,22.00
2022-08-26T02:48:58.380Z,22.00
2022-08-26T02:51:25.675Z,22.10
2022-08-26T02:53:53.473Z,22.10
2022-08-26T02:56:20.780Z,22.10
2022-08-26T02:58:48.112Z,22.10
2022-08-26T03:01:33.394Z,22.10
2022-08-26T03:04:03.815Z,22.10
2022-08-26T03:06:31.858Z,22.20
2022-08-26T03:09:00.029Z,22.20
2022-08-26T03:11:32.280Z,22.20
2022-08-26T03:14:03.366Z,22.10
2022-08-26T03:16:36.559Z,22.10
2022-08-26T03:19:06.721Z,22.10
2022-08-26T03:21:37.426Z,22.10
2022-08-26T03:24:05.626Z,22.10
2022-08-26T03:26:32.918Z,22.00
2022-08-26T03:29:19.113Z,22.00
2022-08-26T03:31:47.129Z,22.00
2022-08-26T03:34:15.136Z,22.00
2022-08-26T03:36:43.364Z,22.00
2022-08-26T03:39:12.167Z,22.00
2022-08-26T03:41:39.961Z,22.00
2022-08-26T03:44:11.536Z,22.00
2022-08-26T03:46:39.662Z,22.00
2022-08-26T03:49:07.886Z,22.00
2022-08-26T03:51:38.675Z,22.10
2022-08-26T03:54:08.298Z,22.00
2022-08-26T03:56:36.759Z,22.00
2022-08-26T03:59:05.152Z,22.00
2022-08-26T04:01:35.904Z,22.00
2022-08-26T04:04:04.504Z,22.00
2022-08-26T04:06:45.046Z,22.00
2022-08-26T04:09:17.706Z,22.00
2022-08-26T04:11:46.111Z,22.00
2022-08-26T04:14:21.219Z,22.00
2022-08-26T04:16:49.326Z,22.00
2022-08-26T04:19:18.564Z,22.00
2022-08-26T04:21:48.981Z,22.10
2022-08-26T04:24:17.619Z,22.10
2022-08-26T04:26:45.321Z,22.10
2022-08-26T04:29:20.143Z,22.10
2022-08-26T04:31:55.214Z,22.10
2022-08-26T04:34:24.538Z,22.10
2022-08-26T04:36:56.068Z,22.10
2022-08-26T04:39:23.790Z,22.10
2022-08-26T04:41:55.139Z,22.10
2022-08-26T04:44:24.361Z,22.10
2022-08-26T04:46:52.340Z,22.10
2022-08-26T04:49:21.059Z,22.00
2022-08-26T04:51:49.005Z,22.00
2022-08-26T04:54:16.568Z,22.00
2022-08-26T04:56:46.526Z,22.00
2022-08-26T04:59:18.163Z,22.00
2022-08-26T05:01:48.687Z,22.00
2022-08-26T05:04:18.984Z,22.00
2022-08-26T05:06:48.351Z,22.00
2022-08-26T05:09:16.281Z,22.00
2022-08-26T05:11:43.615Z,22.00
2022-08-26T05:14:10.885Z,22.00
2022-08-26T05:16:40.321Z,22.00
2022-08-26T05:19:08.641Z,22.10
2022-08-26T05:21:36.669Z,22.10
2022-08-26T05:24:04.752Z,22.10
2022-08-26T05:26:32.842Z,22.10
2022-08-26T05:29:01.509Z,22.10
2022-08-26T05:31:31.626Z,22.10
2022-08-26T05:34:00.488Z,22.10
2022-08-26T05:36:33.551Z,22.10
2022-08-26T05:39:04.653Z,22.10
2022-08-26T05:41:36.441Z,22.10
2022-08-26T05:44:07.412Z,22.10
2022-08-26T05:46:35.959Z,22.10
2022-08-26T05:49:04.761Z,22.10
2022-08-26T05:51:33.677Z,22.10
2022-08-26T05:54:06.901Z,22.10
2022-08-26T05:56:34.215Z,22.10
2022-08-26T05:59:02.718Z,22.10
2022-08-26T06:01:31.924Z,22.10
2022-08-26T06:04:03.542Z,22.10
2022-08-26T06:06:33.980Z,22.10
2022-08-26T06:09:04.738Z,22.10
2022-08-26T06:11:33.033Z,22.10
2022-08-26T06:14:06.370Z,22.10
2022-08-26T06:16:38.294Z,22.10
2022-08-26T06:19:10.599Z,22.10
2022-08-26T06:21:40.602Z,22.10
2022-08-26T06:24:31.614Z,22.10
2022-08-26T06:27:01.942Z,22.10
2022-08-26T06:29:33.136Z,22.10
2022-08-26T06:32:01.484Z,22.10
2022-08-26T06:34:30.256Z,22.00
2022-08-26T06:37:01.410Z,22.00
2022-08-26T06:39:30.768Z,21.90
2022-08-26T06:41:59.708Z,21.90
2022-08-26T06:44:27.515Z,21.90
2022-08-26T06:46:55.394Z,21.90
2022-08-26T06:49:27.198Z,22.00
2022-08-26T06:51:58.519Z,21.90
2022-08-26T06:54:31.719Z,21.90
2022-08-26T06:56:59.485Z,22.00
2022-08-26T06:59:27.271Z,22.00
2022-08-26T07:01:55.295Z,22.00
2022-08-26T07:04:24.529Z,22.00
2022-08-26T07:06:53.720Z,22.10
2022-08-26T07:09:23.588Z,22.10
2022-08-26T07:11:52.005Z,22.10
2022-08-26T07:14:21.391Z,22.10
2022-08-26T07:16:50.695Z,22.10
2022-08-26T07:19:30.641Z,22.10
2022-08-26T07:22:02.265Z,22.10
2022-08-26T07:24:32.952Z,22.20
2022-08-26T07:27:02.844Z,22.20
2022-08-26T07:29:30.916Z,22.10
2022-08-26T07:31:58.588Z,22.10
2022-08-26T07:34:27.774Z,22.10
2022-08-26T07:36:57.162Z,22.10
2022-08-26T07:39:26.861Z,22.10
2022-08-26T07:41:54.450Z,22.10
2022-08-26T07:44:22.195Z,22.00
2022-08-26T07:46:52.389Z,22.00
2022-08-26T07:49:25.333Z,22.10
2022-08-26T07:51:54.482Z,22.10
2022-08-26T07:54:26.776Z,22.00
2022-08-26T07:56:55.915Z,22.00
2022-08-26T07:59:23.733Z,22.10
2022-08-26T08:01:51.561Z,22.10
2022-08-26T08:04:26.130Z,22.10
2022-08-26T08:06:55.431Z,22.10
2022-08-26T08:09:23.183Z,22.10
2022-08-26T08:11:53.097Z,22.10
2022-08-26T08:14:22.280Z,22.10
2022-08-26T08:16:54.492Z,22.10
2022-08-26T08:19:36.575Z,22.00
2022-08-26T08:22:05.306Z,21.90
2022-08-26T08:24:45.268Z,21.90
2022-08-26T08:27:22.808Z,21.80
2022-08-26T08:29:54.375Z,21.80
2022-08-26T08:32:23.707Z,21.80
2022-08-26T08:34:51.608Z,21.80
2022-08-26T08:37:19.009Z,21.80
2022-08-26T08:39:46.323Z,21.80
2022-08-26T08:42:38.782Z,21.80
2022-08-26T08:45:20.214Z,21.80
2022-08-26T08:47:54.706Z,21.80
2022-08-26T08:50:42.881Z,21.80
2022-08-26T08:53:24.776Z,21.80
2022-08-26T08:56:21.267Z,21.90
2022-08-26T08:58:59.592Z,21.90
2022-08-26T09:01:43.497Z,21.90
2022-08-26T09:04:38.889Z,21.90
2022-08-26T09:07:11.992Z,21.90
2022-08-26T09:09:48.282Z,21.90
2022-08-26T09:12:29.867Z,21.90
2022-08-26T09:15:07.694Z,21.90
2022-08-26T09:17:40.889Z,21.90
2022-08-26T09:20:40.886Z,21.90
2022-08-26T09:23:10.852Z,21.90
2022-08-26T09:28:24.495Z,21.90
2022-08-26T09:31:12.201Z,21.90
2022-08-26T09:33:40.950Z,21.90
2022-08-26T09:36:37.805Z,21.90
2022-08-26T09:39:31.578Z,21.90
2022-08-26T09:42:04.888Z,21.90
2022-08-26T09:44:33.056Z,21.90
2022-08-26T09:47:04.879Z,21.90
2022-08-26T09:49:41.134Z,21.90
2022-08-26T09:52:14.768Z,21.90
2022-08-26T09:54:46.052Z,21.90
2022-08-26T09:57:21.032Z,21.80
2022-08-26T09:59:49.610Z,21.80
2022-08-26T10:02:17.019Z,21.80
2022-08-26T10:04:57.824Z,22.00
2022-08-26T10:07:51.243Z,22.10
2022-08-26T10:10:35.351Z,22.20
2022-08-26T10:13:23.478Z,22.30
2022-08-26T10:16:00.101Z,22.30
2022-08-26T10:18:38.702Z,22.40
2022-08-26T10:21:21.033Z,22.40
2022-08-26T10:23:53.404Z,22.40
2022-08-26T10:26:48.633Z,22.40
2022-08-26T10:29:21.197Z,22.40
2022-08-26T10:31:58.748Z,22.40
2022-08-26T10:34:30.185Z,22.40
2022-08-26T10:37:14.180Z,22.40
2022-08-26T10:39:57.217Z,22.40
2022-08-26T10:42:29.325Z,22.50
2022-08-26T10:45:02.562Z,22.50
2022-08-26T10:47:54.223Z,22.40
2022-08-26T10:50:25.988Z,22.40
2022-08-26T10:53:08.729Z,22.40
2022-08-26T10:55:50.503Z,22.40
2022-08-26T10:58:28.719Z,22.40
2022-08-26T11:01:42.242Z,22.40
2022-08-26T11:04:22.435Z,22.40
2022-08-26T11:07:10.518Z,22.40
2022-08-26T11:09:49.045Z,22.40
2022-08-26T11:12:51.589Z,22.40
2022-08-26T11:15:24.555Z,22.40
2022-08-26T11:17:52.208Z,22.40
2022-08-26T11:20:39.298Z,22.40
2022-08-26T11:23:12.929Z,22.40
2022-08-26T11:26:01.278Z,22.40
2022-08-26T11:28:44.148Z,22.40
2022-08-26T11:31:19.452Z,22.40
2022-08-26T11:33:57.046Z,22.40
2022-08-26T11:36:55.595Z,22.50
2022-08-26T11:39:31.064Z,22.50
2022-08-26T11:42:34.387Z,22.50
2022-08-26T11:45:19.577Z,22.50
2022-08-26T11:47:47.438Z,22.50
2022-08-26T11:50:20.173Z,22.50
2022-08-26T11:53:07.581Z,22.50
2022-08-26T11:55:41.834Z,22.40
2022-08-26T11:58:12.929Z,22.40
2022-08-26T12:00:46.240Z,22.40
2022-08-26T12:03:23.900Z,22.40
2022-08-26T12:05:53.757Z,22.40
2022-08-26T12:08:29.110Z,22.40
2022-08-26T12:11:10.209Z,22.40
2022-08-26T12:13:39.248Z,22.40
2022-08-26T12:16:07.520Z,22.40
2022-08-26T12:18:38.421Z,22.30
2022-08-26T12:21:22.761Z,22.40
2022-08-26T12:23:54.737Z,22.40
2022-08-26T12:26:28.170Z,22.50
2022-08-26T12:29:01.113Z,22.50
2022-08-26T12:31:37.577Z,22.50
2022-08-26T12:34:18.253Z,22.60
2022-08-26T12:36:54.733Z,22.60
2022-08-26T12:39:33.109Z,22.60
2022-08-26T12:42:21.850Z,22.60
2022-08-26T12:44:58.542Z,22.70
2022-08-26T12:47:43.986Z,22.60
2022-08-26T12:50:22.210Z,22.70
2022-08-26T12:53:03.110Z,22.60
2022-08-26T12:55:33.140Z,22.60
2022-08-26T12:58:15.798Z,22.60
2022-08-26T13:00:48.840Z,22.60
2022-08-26T13:03:34.669Z,22.60
2022-08-26T13:06:22.317Z,22.60
2022-08-26T13:08:52.609Z,22.70
2022-08-26T13:11:23.685Z,22.70
2022-08-26T13:13:55.865Z,22.70
2022-08-26T13:16:24.721Z,22.70
2022-08-26T13:18:56.027Z,22.70
2022-08-26T13:21:27.475Z,22.70
2022-08-26T13:23:55.607Z,22.70
2022-08-26T13:26:22.973Z,22.70
2022-08-26T13:29:01.853Z,22.70
2022-08-26T13:31:31.267Z,22.70
2022-08-26T13:33:59.013Z,22.60
2022-08-26T13:36:26.966Z,22.60
2022-08-26T13:38:54.278Z,22.60
2022-08-26T13:41:28.942Z,22.60
2022-08-26T13:43:58.243Z,22.60
2022-08-26T13:46:28.479Z,22.70
2022-08-26T13:48:57.938Z,22.70
2022-08-26T13:51:27.133Z,22.80
2022-08-26T13:53:55.123Z,22.80
2022-08-26T13:56:23.037Z,22.80
2022-08-26T13:58:50.546Z,22.80
2022-08-26T14:01:18.247Z,22.90
2022-08-26T14:03:46.332Z,22.80
2022-08-26T14:06:13.845Z,22.80
2022-08-26T14:08:42.035Z,22.80
2022-08-26T14:11:09.937Z,22.70
2022-08-26T14:13:37.231Z,22.80
2022-08-26T14:16:08.610Z,22.80
2022-08-26T14:18:41.799Z,22.90
2022-08-26T14:21:12.825Z,22.80
2022-08-26T14:23:41.434Z,22.80
2022-08-26T14:26:10.945Z,22.80
2022-08-26T14:28:44.712Z,22.80
2022-08-26T14:31:12.700Z,22.90
2022-08-26T14:33:41.442Z,22.80
2022-08-26T14:36:27.530Z,22.80
2022-08-26T14:38:56.597Z,22.80
2022-08-26T14:41:25.413Z,22.90
2022-08-26T14:44:00.262Z,22.90
2022-08-26T14:46:39.208Z,22.90
2022-08-26T14:49:10.372Z,22.90
2022-08-26T14:51:39.258Z,22.90
2022-08-26T14:54:13.540Z,22.90
2022-08-26T14:56:58.591Z,22.90
2022-08-26T14:59:38.385Z,22.90
2022-08-26T15:02:07.653Z,22.90
2022-08-26T15:04:35.166Z,22.90
2022-08-26T15:07:04.482Z,22.80
2022-08-26T15:09:36.409Z,22.80
2022-08-26T15:12:04.956Z,22.80
2022-08-26T15:14:33.165Z,22.80
2022-08-26T15:17:00.680Z,22.80
2022-08-26T15:19:28.248Z,22.80
2022-08-26T15:21:56.700Z,22.80
2022-08-26T15:24:26.081Z,22.80
2022-08-26T15:26:53.393Z,22.80
2022-08-26T15:29:22.301Z,22.80
2022-08-26T15:31:50.175Z,22.80
2022-08-26T15:34:17.948Z,22.80
2022-08-26T15:36:47.010Z,22.80
2022-08-26T15:39:16.008Z,22.80
2022-08-26T15:41:43.483Z,22.70
2022-08-26T15:44:11.784Z,22.70
2022-08-26T15:46:39.383Z,22.70
2022-08-26T15:49:07.502Z,22.70
2022-08-26T15:51:45.830Z,22.70
2022-08-26T15:54:16.038Z,22.70
2022-08-26T15:56:43.736Z,22.70
2022-08-26T15:59:11.821Z,22.70
2022-08-26T16:01:39.810Z,22.70
2022-08-26T16:04:07.536Z,22.70
2022-08-26T16:06:37.171Z,22.70
2022-08-26T16:09:05.691Z,22.70
2022-08-26T16:11:35.342Z,22.70
2022-08-26T16:14:02.950Z,22.70
2022-08-26T16:16:30.468Z,22.70
2022-08-26T16:18:57.903Z,22.70
2022-08-26T16:21:28.703Z,22.70
2022-08-26T16:23:57.289Z,22.70
2022-08-26T16:26:29.045Z,22.70
2022-08-26T16:28:56.430Z,22.60
2022-08-26T16:31:23.877Z,22.60
2022-08-26T16:33:51.482Z,22.60
2022-08-26T16:36:19.903Z,22.60
2022-08-26T16:38:50.257Z,22.70
2022-08-26T16:41:17.769Z,22.70
2022-08-26T16:43:45.753Z,22.70
2022-08-26T16:46:17.014Z,22.70
2022-08-26T16:48:45.271Z,22.70
2022-08-26T16:51:16.078Z,22.70
2022-08-26T16:53:44.006Z,22.80
2022-08-26T16:56:15.385Z,22.80
2022-08-26T16:58:44.103Z,22.80
2022-08-26T17:01:11.971Z,22.80
2022-08-26T17:03:39.615Z,22.70
2022-08-26T17:06:07.354Z,22.70
2022-08-26T17:08:36.514Z,22.70
2022-08-26T17:11:03.954Z,22.60
2022-08-26T17:13:35.516Z,22.60
2022-08-26T17:16:05.479Z,22.60
2022-08-26T17:18:33.687Z,22.50
2022-08-26T17:21:07.094Z,22.50
2022-08-26T17:23:35.402Z,22.50
2022-08-26T17:26:03.196Z,22.50
2022-08-26T17:28:30.759Z,22.50
2022-08-26T17:30:58.693Z,22.50
2022-08-26T17:33:26.668Z,22.40
2022-08-26T17:35:55.119Z,22.50
2022-08-26T17:38:23.336Z,22.40
2022-08-26T17:40:51.923Z,22.40
2022-08-26T17:43:19.776Z,22.40
2022-08-26T17:45:48.576Z,22.40
2022-08-26T17:48:17.391Z,22.30
2022-08-26T17:50:49.349Z,22.30
2022-08-26T17:53:19.173Z,22.20
2022-08-26T17:55:47.971Z,22.20
2022-08-26T17:58:17.227Z,22.20
2022-08-26T18:00:46.282Z,22.20
2022-08-26T18:03:13.876Z,22.30
2022-08-26T18:05:42.656Z,22.30
2022-08-26T18:08:10.253Z,22.20
2022-08-26T18:10:37.592Z,22.30
2022-08-26T18:13:04.905Z,22.20
2022-08-26T18:15:32.545Z,22.20
2022-08-26T18:18:00.141Z,22.10
2022-08-26T18:20:27.788Z,22.10
2022-08-26T18:22:55.397Z,22.10
2022-08-26T18:25:23.144Z,22.00
2022-08-26T18:27:50.786Z,22.00
2022-08-26T18:30:20.989Z,22.00
2022-08-26T18:32:50.879Z,22.00
2022-08-26T18:35:19.316Z,22.00
2022-08-26T18:37:46.764Z,22.10
2022-08-26T18:40:16.236Z,22.20
2022-08-26T18:42:44.051Z,22.30
2022-08-26T18:45:16.392Z,22.40
2022-08-26T18:47:44.144Z,22.40
2022-08-26T18:50:11.737Z,22.50
2022-08-26T18:52:39.264Z,22.50
2022-08-26T18:55:06.995Z,22.50
2022-08-26T18:57:34.309Z,22.50
2022-08-26T19:00:02.530Z,22.50
2022-08-26T19:02:30.666Z,22.50
2022-08-26T19:04:58.230Z,22.50
2022-08-26T19:07:25.798Z,22.40
2022-08-26T19:09:53.997Z,22.50
2022-08-26T19:12:22.125Z,22.40
2022-08-26T19:14:53.742Z,22.40
2022-08-26T19:17:22.650Z,22.40
2022-08-26T19:19:50.125Z,22.40
2022-08-26T19:22:19.857Z,22.40
2022-08-26T19:24:47.433Z,22.30
2022-08-26T19:27:15.155Z,22.30
2022-08-26T19:29:43.046Z,22.20
2022-08-26T19:32:10.352Z,22.30
2022-08-26T19:34:37.764Z,22.30
2022-08-26T19:37:05.193Z,22.30
2022-08-26T19:39:32.695Z,22.30
2022-08-26T19:42:00.832Z,22.30
2022-08-26T19:44:46.941Z,22.30
2022-08-26T19:47:15.210Z,22.30
2022-08-26T19:49:42.874Z,22.30
2022-08-26T19:52:11.521Z,22.30
2022-08-26T19:54:40.035Z,22.30
2022-08-26T19:57:07.458Z,22.30
2022-08-26T19:59:36.232Z,22.30
2022-08-26T20:02:10.898Z,22.30
2022-08-26T20:04:39.018Z,22.30
2022-08-26T20:07:06.496Z,22.30
2022-08-26T20:09:35.471Z,22.20
2022-08-26T20:12:05.558Z,22.20
2022-08-26T20:14:35.639Z,22.10
2022-08-26T20:17:08.862Z,22.10
2022-08-26T20:19:55.430Z,22.00
2022-08-26T20:22:23.477Z,22.00
2022-08-26T20:24:51.701Z,22.00
2022-08-26T20:27:19.376Z,22.10
2022-08-26T20:29:46.667Z,22.20
2022-08-26T20:32:16.912Z,22.30
2022-08-26T20:34:50.260Z,22.20
2022-08-26T20:37:21.618Z,22.30
2022-08-26T20:39:49.377Z,22.20
2022-08-26T20:42:20.282Z,22.10
2022-08-26T20:44:54.280Z,21.50
2022-08-26T20:47:22.663Z,21.10
2022-08-26T20:49:52.498Z,21.20
2022-08-26T20:52:20.451Z,21.30
2022-08-26T20:54:47.773Z,21.30
2022-08-26T20:57:15.064Z,21.10
2022-08-26T20:59:43.610Z,21.20
2022-08-26T21:02:10.918Z,21.40
2022-08-26T21:04:38.273Z,21.40
2022-08-26T21:07:05.734Z,21.60
2022-08-26T21:09:33.537Z,21.70
2022-08-26T21:12:00.794Z,21.70
2022-08-26T21:14:28.825Z,21.80
2022-08-26T21:16:57.423Z,21.80
2022-08-26T21:19:24.862Z,21.80
2022-08-26T21:21:52.480Z,21.80
2022-08-26T21:24:20.010Z,21.80
2022-08-26T21:26:47.903Z,21.80
2022-08-26T21:29:15.327Z,21.80
2022-08-26T21:31:46.608Z,21.80
2022-08-26T21:34:18.775Z,21.80
2022-08-26T21:36:47.044Z,21.90
2022-08-26T21:39:14.922Z,21.90
2022-08-26T21:41:43.700Z,21.90
2022-08-26T21:44:12.319Z,22.00
2022-08-26T21:46:40.307Z,21.90
2022-08-26T21:49:10.880Z,21.90
2022-08-26T21:51:42.121Z,21.80
2022-08-26T21:54:11.513Z,21.90
2022-08-26T21:56:44.235Z,21.90
2022-08-26T21:59:12.675Z,21.90
2022-08-26T22:01:40.593Z,21.90
2022-08-26T22:04:09.263Z,21.80
2022-08-26T22:06:43.351Z,21.70
2022-08-26T22:09:11.993Z,21.70
2022-08-26T22:11:39.452Z,21.70
2022-08-26T22:14:06.878Z,21.70
2022-08-26T22:16:34.285Z,21.80
2022-08-26T22:19:02.077Z,21.80
2022-08-26T22:21:29.476Z,21.80
2022-08-26T22:23:58.655Z,21.60
2022-08-26T22:26:28.881Z,21.50
2022-08-26T22:28:59.207Z,21.50
2022-08-26T22:31:38.133Z,21.60
2022-08-26T22:34:12.162Z,21.70
2022-08-26T22:36:43.219Z,21.80
2022-08-26T22:39:17.491Z,21.80
2022-08-26T22:41:46.228Z,21.90
2022-08-26T22:44:13.715Z,21.90
2022-08-26T22:46:42.562Z,21.90
2022-08-26T22:49:12.524Z,21.90
2022-08-26T22:51:39.918Z,21.90
2022-08-26T22:54:07.457Z,21.80
2022-08-26T22:56:38.270Z,21.80
2022-08-26T22:59:08.098Z,21.80
2022-08-26T23:01:38.548Z,21.80
2022-08-26T23:04:07.565Z,21.80
2022-08-26T23:06:37.502Z,21.80
2022-08-26T23:09:06.232Z,21.80
2022-08-26T23:11:34.009Z,21.70
2022-08-26T23:14:02.899Z,21.70
2022-08-26T23:16:37.968Z,21.70
2022-08-26T23:19:08.217Z,21.60
2022-08-26T23:21:35.858Z,21.50
2022-08-26T23:24:03.661Z,21.60
2022-08-26T23:26:31.878Z,21.50
2022-08-26T23:28:59.586Z,21.50
2022-08-26T23:31:26.941Z,21.50
2022-08-26T23:34:12.742Z,21.50
2022-08-26T23:36:42.408Z,21.40
2022-08-26T23:39:11.705Z,21.40
2022-08-26T23:41:39.114Z,21.50
2022-08-26T23:44:06.450Z,21.60
2022-08-26T23:46:35.695Z,21.60
2022-08-26T23:49:04.187Z,21.70
2022-08-26T23:51:50.087Z,21.70
2022-08-26T23:54:17.453Z,21.70
2022-08-26T23:56:46.095Z,21.70
2022-08-26T23:59:13.717Z,21.60
